IPG2511 KCLT-KATL
Flight info
| Callsign | IPG2511 |
|---|---|
| Flight time | 1h 11m |
| Altitude | 28000 |
| Route | BOBZY5 TNSLY LEAVI OZZZI2 |
| Aircraft | SF50/L-SDGRWY/L |
Departure
| Time | 2026-05-07 03:00 |
|---|---|
| Airport | Charlotte Douglas International Airport (KCLT) |
Arrival
| Time | 2026-05-07 04:11 |
|---|---|
| Airport | Hartsfield Jackson Atlanta International Airport (KATL) |
| Time | Latitude | Longitude | Altitude | Speed | Heading |
|---|---|---|---|---|---|
| 2026-05-07 02:33 | 35.22003 | -80.94061 | 721 ft | 0 kts | 1° |
| 2026-05-07 02:46 | 35.21987 | -80.94061 | 719 ft | 3 kts | 1° |
| 2026-05-07 02:46 | 35.21969 | -80.94062 | 716 ft | 3 kts | 1° |
| 2026-05-07 02:46 | 35.21951 | -80.94062 | 719 ft | 2 kts | 1° |
| 2026-05-07 02:47 | 35.21943 | -80.94062 | 721 ft | 1 kts | 1° |
| 2026-05-07 02:47 | 35.21936 | -80.94062 | 721 ft | 0 kts | 1° |
| 2026-05-07 02:47 | 35.21935 | -80.94062 | 721 ft | 0 kts | 1° |
| 2026-05-07 02:48 | 35.21936 | -80.94063 | 721 ft | 0 kts | 327° |
| 2026-05-07 02:48 | 35.21935 | -80.94067 | 721 ft | 1 kts | 194° |
| 2026-05-07 02:48 | 35.21908 | -80.94055 | 719 ft | 8 kts | 142° |
| 2026-05-07 02:48 | 35.21857 | -80.94021 | 720 ft | 7 kts | 161° |
| 2026-05-07 02:49 | 35.21835 | -80.94010 | 719 ft | 6 kts | 148° |
| 2026-05-07 02:49 | 35.21828 | -80.94005 | 718 ft | 1 kts | 149° |
| 2026-05-07 02:49 | 35.21819 | -80.94003 | 721 ft | 2 kts | 186° |
| 2026-05-07 02:49 | 35.21788 | -80.94005 | 718 ft | 9 kts | 181° |
| 2026-05-07 02:50 | 35.21742 | -80.94034 | 718 ft | 0 kts | 237° |
| 2026-05-07 02:50 | 35.21737 | -80.94042 | 718 ft | 4 kts | 227° |
| 2026-05-07 02:50 | 35.21706 | -80.94085 | 718 ft | 9 kts | 229° |
| 2026-05-07 02:50 | 35.21676 | -80.94126 | 717 ft | 2 kts | 226° |
| 2026-05-07 02:51 | 35.21644 | -80.94169 | 716 ft | 11 kts | 232° |
| 2026-05-07 02:51 | 35.21633 | -80.94254 | 716 ft | 10 kts | 276° |
| 2026-05-07 02:51 | 35.21640 | -80.94315 | 715 ft | 1 kts | 291° |
| 2026-05-07 02:51 | 35.21644 | -80.94356 | 715 ft | 9 kts | 283° |
| 2026-05-07 02:52 | 35.21669 | -80.94384 | 715 ft | 2 kts | 348° |
| 2026-05-07 02:52 | 35.21658 | -80.94410 | 715 ft | 10 kts | 244° |
| 2026-05-07 02:52 | 35.21634 | -80.94506 | 714 ft | 10 kts | 261° |
| 2026-05-07 02:52 | 35.21628 | -80.94583 | 714 ft | 8 kts | 266° |
| 2026-05-07 02:53 | 35.21624 | -80.94646 | 713 ft | 7 kts | 266° |
| 2026-05-07 02:53 | 35.21622 | -80.94699 | 713 ft | 6 kts | 267° |
| 2026-05-07 02:53 | 35.21618 | -80.94756 | 713 ft | 7 kts | 264° |
| 2026-05-07 02:53 | 35.21615 | -80.94819 | 715 ft | 7 kts | 267° |
| 2026-05-07 02:54 | 35.21612 | -80.94883 | 713 ft | 6 kts | 268° |
| 2026-05-07 02:54 | 35.21627 | -80.94921 | 714 ft | 5 kts | 319° |
| 2026-05-07 02:54 | 35.21667 | -80.94934 | 712 ft | 7 kts | 355° |
| 2026-05-07 02:54 | 35.21715 | -80.94941 | 712 ft | 7 kts | 354° |
| 2026-05-07 02:55 | 35.21741 | -80.94944 | 712 ft | 3 kts | 356° |
| 2026-05-07 02:55 | 35.21763 | -80.94946 | 712 ft | 4 kts | 356° |
| 2026-05-07 02:55 | 35.21800 | -80.94949 | 713 ft | 6 kts | 354° |
| 2026-05-07 02:55 | 35.21850 | -80.94958 | 711 ft | 8 kts | 331° |
| 2026-05-07 02:56 | 35.21878 | -80.95023 | 713 ft | 9 kts | 311° |
| 2026-05-07 02:56 | 35.21937 | -80.95047 | 710 ft | 10 kts | 355° |
| 2026-05-07 02:56 | 35.22008 | -80.95054 | 713 ft | 11 kts | 355° |
| 2026-05-07 02:56 | 35.22089 | -80.95061 | 709 ft | 12 kts | 355° |
| 2026-05-07 02:57 | 35.22176 | -80.95067 | 708 ft | 13 kts | 357° |
| 2026-05-07 02:57 | 35.22265 | -80.95075 | 707 ft | 13 kts | 355° |
| 2026-05-07 02:57 | 35.22357 | -80.95083 | 707 ft | 12 kts | 356° |
| 2026-05-07 02:57 | 35.22433 | -80.95089 | 703 ft | 10 kts | 356° |
| 2026-05-07 02:58 | 35.22495 | -80.95094 | 703 ft | 8 kts | 356° |
| 2026-05-07 02:58 | 35.22550 | -80.95100 | 705 ft | 8 kts | 355° |
| 2026-05-07 02:58 | 35.22605 | -80.95105 | 704 ft | 8 kts | 354° |
| 2026-05-07 02:58 | 35.22650 | -80.95141 | 704 ft | 9 kts | 285° |
| 2026-05-07 02:59 | 35.22646 | -80.95216 | 703 ft | 9 kts | 266° |
| 2026-05-07 02:59 | 35.22629 | -80.95286 | 700 ft | 9 kts | 216° |
| 2026-05-07 02:59 | 35.22550 | -80.95295 | 704 ft | 25 kts | 177° |
| 2026-05-07 02:59 | 35.22111 | -80.95288 | 757 ft | 92 kts | 176° |
| 2026-05-07 03:00 | 35.21514 | -80.95178 | 1247 ft | 82 kts | 178° |
| 2026-05-07 03:00 | 35.20904 | -80.95081 | 1597 ft | 92 kts | 179° |
| 2026-05-07 03:00 | 35.20244 | -80.94931 | 1984 ft | 106 kts | 178° |
| 2026-05-07 03:00 | 35.19418 | -80.94683 | 2267 ft | 133 kts | 178° |
| 2026-05-07 03:01 | 35.18461 | -80.94411 | 2549 ft | 149 kts | 178° |
| 2026-05-07 03:01 | 35.17410 | -80.94081 | 2816 ft | 162 kts | 176° |
| 2026-05-07 03:01 | 35.16268 | -80.93769 | 3075 ft | 174 kts | 178° |
| 2026-05-07 03:01 | 35.15058 | -80.93437 | 3207 ft | 181 kts | 177° |
| 2026-05-07 03:02 | 35.13817 | -80.93100 | 3454 ft | 184 kts | 177° |
| 2026-05-07 03:02 | 35.12559 | -80.92770 | 3701 ft | 186 kts | 177° |
| 2026-05-07 03:02 | 35.11289 | -80.92436 | 3948 ft | 188 kts | 177° |
| 2026-05-07 03:02 | 35.10002 | -80.92105 | 4200 ft | 190 kts | 177° |
| 2026-05-07 03:03 | 35.08698 | -80.91777 | 4447 ft | 192 kts | 176° |
| 2026-05-07 03:03 | 35.07386 | -80.91457 | 4694 ft | 192 kts | 177° |
| 2026-05-07 03:03 | 35.06074 | -80.91126 | 4934 ft | 193 kts | 177° |
| 2026-05-07 03:03 | 35.04762 | -80.90796 | 5181 ft | 193 kts | 177° |
| 2026-05-07 03:04 | 35.03446 | -80.90465 | 5427 ft | 194 kts | 176° |
| 2026-05-07 03:04 | 35.02118 | -80.90169 | 5664 ft | 194 kts | 178° |
| 2026-05-07 03:04 | 35.00846 | -80.90292 | 5895 ft | 180 kts | 212° |
| 2026-05-07 03:04 | 35.00011 | -80.91374 | 6144 ft | 175 kts | 238° |
| 2026-05-07 03:05 | 34.99636 | -80.92776 | 6388 ft | 177 kts | 262° |
| 2026-05-07 03:05 | 34.99707 | -80.94285 | 6622 ft | 179 kts | 270° |
| 2026-05-07 03:05 | 34.99783 | -80.95796 | 6859 ft | 179 kts | 268° |
| 2026-05-07 03:05 | 34.99879 | -80.97293 | 7093 ft | 181 kts | 273° |
| 2026-05-07 03:06 | 35.00064 | -80.98814 | 7332 ft | 181 kts | 273° |
| 2026-05-07 03:06 | 35.00219 | -81.00337 | 7572 ft | 181 kts | 272° |
| 2026-05-07 03:06 | 35.00369 | -81.01856 | 7813 ft | 180 kts | 272° |
| 2026-05-07 03:06 | 35.00514 | -81.03367 | 8058 ft | 179 kts | 272° |
| 2026-05-07 03:07 | 35.00659 | -81.04876 | 8308 ft | 179 kts | 272° |
| 2026-05-07 03:07 | 35.00805 | -81.06385 | 8551 ft | 179 kts | 272° |
| 2026-05-07 03:07 | 35.00951 | -81.07892 | 8801 ft | 179 kts | 272° |
| 2026-05-07 03:07 | 35.01097 | -81.09399 | 9053 ft | 179 kts | 272° |
| 2026-05-07 03:08 | 35.01241 | -81.10903 | 9306 ft | 179 kts | 272° |
| 2026-05-07 03:08 | 35.01387 | -81.12410 | 9561 ft | 179 kts | 272° |
| 2026-05-07 03:08 | 35.01532 | -81.13911 | 9815 ft | 178 kts | 272° |
| 2026-05-07 03:08 | 35.01674 | -81.15397 | 10123 ft | 174 kts | 272° |
| 2026-05-07 03:09 | 35.01813 | -81.16837 | 10468 ft | 168 kts | 272° |
| 2026-05-07 03:09 | 35.01947 | -81.18246 | 10817 ft | 167 kts | 272° |
| 2026-05-07 03:09 | 35.02083 | -81.19659 | 11174 ft | 168 kts | 272° |
| 2026-05-07 03:09 | 35.02216 | -81.21076 | 11535 ft | 168 kts | 272° |
| 2026-05-07 03:10 | 35.02353 | -81.22495 | 11898 ft | 168 kts | 272° |
| 2026-05-07 03:10 | 35.02487 | -81.23909 | 12270 ft | 168 kts | 272° |
| 2026-05-07 03:10 | 35.02622 | -81.25318 | 12643 ft | 167 kts | 272° |
| 2026-05-07 03:10 | 35.02755 | -81.26722 | 13020 ft | 166 kts | 272° |
| 2026-05-07 03:11 | 35.02888 | -81.28117 | 13407 ft | 165 kts | 272° |
| 2026-05-07 03:11 | 35.03020 | -81.29501 | 13793 ft | 164 kts | 272° |
| 2026-05-07 03:11 | 35.03149 | -81.30877 | 14135 ft | 163 kts | 272° |
| 2026-05-07 03:11 | 35.03280 | -81.32244 | 14482 ft | 161 kts | 273° |
| 2026-05-07 03:12 | 35.03407 | -81.33595 | 14835 ft | 160 kts | 273° |
| 2026-05-07 03:12 | 35.03535 | -81.34932 | 15190 ft | 157 kts | 274° |
| 2026-05-07 03:12 | 35.03655 | -81.36232 | 15544 ft | 155 kts | 274° |
| 2026-05-07 03:12 | 35.03779 | -81.37529 | 15907 ft | 153 kts | 274° |
| 2026-05-07 03:13 | 35.03899 | -81.38808 | 16275 ft | 151 kts | 274° |
| 2026-05-07 03:13 | 35.04017 | -81.40066 | 16645 ft | 148 kts | 275° |
| 2026-05-07 03:13 | 35.04132 | -81.41297 | 17021 ft | 144 kts | 275° |
| 2026-05-07 03:13 | 35.04245 | -81.42501 | 17400 ft | 141 kts | 275° |
| 2026-05-07 03:14 | 35.04356 | -81.43683 | 17789 ft | 139 kts | 275° |
| 2026-05-07 03:14 | 35.04465 | -81.44839 | 18173 ft | 136 kts | 275° |
| 2026-05-07 03:14 | 35.04671 | -81.47075 | 18860 ft | 130 kts | 275° |
| 2026-05-07 03:15 | 35.04773 | -81.48155 | 19201 ft | 127 kts | 275° |
| 2026-05-07 03:15 | 35.04871 | -81.49211 | 19544 ft | 124 kts | 275° |
| 2026-05-07 03:15 | 35.04969 | -81.50240 | 19891 ft | 121 kts | 275° |
| 2026-05-07 03:15 | 35.05061 | -81.51246 | 20240 ft | 118 kts | 275° |
| 2026-05-07 03:16 | 35.05153 | -81.52226 | 20603 ft | 115 kts | 274° |
| 2026-05-07 03:16 | 35.05239 | -81.53178 | 20962 ft | 111 kts | 274° |
| 2026-05-07 03:16 | 35.05326 | -81.54099 | 21324 ft | 107 kts | 274° |
| 2026-05-07 03:16 | 35.05407 | -81.54984 | 21691 ft | 103 kts | 274° |
| 2026-05-07 03:17 | 35.05487 | -81.55833 | 22058 ft | 99 kts | 274° |
| 2026-05-07 03:17 | 35.05563 | -81.56647 | 22435 ft | 95 kts | 274° |
| 2026-05-07 03:17 | 35.05634 | -81.57427 | 22815 ft | 90 kts | 273° |
| 2026-05-07 03:17 | 35.05703 | -81.58169 | 23199 ft | 86 kts | 273° |
| 2026-05-07 03:18 | 35.05769 | -81.58868 | 23571 ft | 80 kts | 273° |
| 2026-05-07 03:18 | 35.05824 | -81.59508 | 23878 ft | 74 kts | 272° |
| 2026-05-07 03:18 | 35.05880 | -81.60100 | 24197 ft | 67 kts | 271° |
| 2026-05-07 03:18 | 35.05931 | -81.60633 | 24503 ft | 59 kts | 271° |
| 2026-05-07 03:19 | 35.05974 | -81.61092 | 24808 ft | 50 kts | 271° |
| 2026-05-07 03:19 | 35.06017 | -81.61579 | 24951 ft | 64 kts | 272° |
| 2026-05-07 03:19 | 35.06067 | -81.62152 | 25137 ft | 73 kts | 271° |
| 2026-05-07 03:19 | 35.06127 | -81.62814 | 25309 ft | 84 kts | 271° |
| 2026-05-07 03:20 | 35.06197 | -81.63567 | 25487 ft | 95 kts | 271° |
| 2026-05-07 03:20 | 35.06275 | -81.64413 | 25651 ft | 106 kts | 272° |
| 2026-05-07 03:20 | 35.06360 | -81.65351 | 25817 ft | 117 kts | 272° |
| 2026-05-07 03:20 | 35.06454 | -81.66378 | 25991 ft | 127 kts | 271° |
| 2026-05-07 03:21 | 35.06557 | -81.67489 | 26157 ft | 136 kts | 271° |
| 2026-05-07 03:21 | 35.06665 | -81.68673 | 26309 ft | 144 kts | 271° |
| 2026-05-07 03:21 | 35.06780 | -81.69921 | 26464 ft | 151 kts | 271° |
| 2026-05-07 03:21 | 35.06900 | -81.71221 | 26619 ft | 157 kts | 271° |
| 2026-05-07 03:22 | 35.07023 | -81.72566 | 26773 ft | 162 kts | 271° |
| 2026-05-07 03:22 | 35.07149 | -81.73942 | 26929 ft | 165 kts | 271° |
| 2026-05-07 03:22 | 35.07276 | -81.75345 | 27078 ft | 167 kts | 271° |
| 2026-05-07 03:22 | 35.07407 | -81.76767 | 27231 ft | 170 kts | 271° |
| 2026-05-07 03:23 | 35.07537 | -81.78206 | 27385 ft | 171 kts | 271° |
| 2026-05-07 03:23 | 35.07670 | -81.79658 | 27542 ft | 173 kts | 271° |
| 2026-05-07 03:23 | 35.07801 | -81.81120 | 27691 ft | 174 kts | 271° |
| 2026-05-07 03:23 | 35.07935 | -81.82590 | 27846 ft | 175 kts | 271° |
| 2026-05-07 03:24 | 35.08066 | -81.84055 | 27930 ft | 179 kts | 271° |
| 2026-05-07 03:24 | 35.08204 | -81.85586 | 27936 ft | 184 kts | 271° |
| 2026-05-07 03:24 | 35.08347 | -81.87166 | 27943 ft | 190 kts | 271° |
| 2026-05-07 03:24 | 35.08492 | -81.88790 | 27949 ft | 195 kts | 271° |
| 2026-05-07 03:25 | 35.08643 | -81.90453 | 27949 ft | 199 kts | 271° |
| 2026-05-07 03:25 | 35.08794 | -81.92153 | 27948 ft | 204 kts | 271° |
| 2026-05-07 03:25 | 35.08951 | -81.93891 | 27949 ft | 208 kts | 271° |
| 2026-05-07 03:25 | 35.09052 | -81.95670 | 27950 ft | 212 kts | 267° |
| 2026-05-07 03:26 | 35.08962 | -81.97476 | 27949 ft | 215 kts | 262° |
| 2026-05-07 03:26 | 35.08680 | -81.99276 | 27949 ft | 218 kts | 256° |
| 2026-05-07 03:26 | 35.08202 | -82.01044 | 27951 ft | 221 kts | 251° |
| 2026-05-07 03:26 | 35.07527 | -82.02748 | 27951 ft | 225 kts | 245° |
| 2026-05-07 03:27 | 35.06654 | -82.04356 | 27953 ft | 230 kts | 239° |
| 2026-05-07 03:27 | 35.05639 | -82.05877 | 27952 ft | 232 kts | 238° |
| 2026-05-07 03:27 | 35.04628 | -82.07416 | 27953 ft | 233 kts | 238° |
| 2026-05-07 03:27 | 35.03621 | -82.08966 | 27952 ft | 233 kts | 238° |
| 2026-05-07 03:28 | 35.02599 | -82.10514 | 27943 ft | 235 kts | 237° |
| 2026-05-07 03:28 | 35.01939 | -82.11497 | 27944 ft | 235 kts | 237° |
| 2026-05-07 03:28 | 35.00909 | -82.13050 | 27946 ft | 236 kts | 238° |
| 2026-05-07 03:28 | 34.99880 | -82.14610 | 27949 ft | 236 kts | 238° |
| 2026-05-07 03:29 | 34.98852 | -82.16177 | 27934 ft | 237 kts | 237° |
| 2026-05-07 03:29 | 34.97826 | -82.17761 | 27934 ft | 239 kts | 238° |
| 2026-05-07 03:29 | 34.96812 | -82.19346 | 27937 ft | 241 kts | 238° |
| 2026-05-07 03:29 | 34.95783 | -82.20972 | 27938 ft | 243 kts | 238° |
| 2026-05-07 03:30 | 34.94758 | -82.22614 | 27936 ft | 244 kts | 238° |
| 2026-05-07 03:30 | 34.93736 | -82.24269 | 27943 ft | 245 kts | 238° |
| 2026-05-07 03:30 | 34.92914 | -82.26050 | 27936 ft | 240 kts | 253° |
| 2026-05-07 03:30 | 34.92758 | -82.28065 | 27937 ft | 242 kts | 272° |
| 2026-05-07 03:31 | 34.93096 | -82.30087 | 27955 ft | 245 kts | 279° |
| 2026-05-07 03:31 | 34.93521 | -82.32103 | 27974 ft | 246 kts | 279° |
| 2026-05-07 03:31 | 34.93957 | -82.34121 | 27974 ft | 247 kts | 279° |
| 2026-05-07 03:31 | 34.94379 | -82.36147 | 27983 ft | 246 kts | 278° |
| 2026-05-07 03:32 | 34.94671 | -82.38193 | 27971 ft | 245 kts | 274° |
| 2026-05-07 03:32 | 34.94786 | -82.40256 | 27959 ft | 243 kts | 269° |
| 2026-05-07 03:32 | 34.94726 | -82.42310 | 27963 ft | 242 kts | 264° |
| 2026-05-07 03:32 | 34.94502 | -82.44343 | 27962 ft | 242 kts | 259° |
| 2026-05-07 03:33 | 34.94112 | -82.46341 | 27961 ft | 243 kts | 255° |
| 2026-05-07 03:33 | 34.93540 | -82.48282 | 27961 ft | 244 kts | 249° |
| 2026-05-07 03:33 | 34.92745 | -82.50118 | 27942 ft | 246 kts | 243° |
| 2026-05-07 03:33 | 34.91829 | -82.51885 | 27942 ft | 247 kts | 242° |
| 2026-05-07 03:34 | 34.90941 | -82.53673 | 27946 ft | 247 kts | 243° |
| 2026-05-07 03:34 | 34.90080 | -82.55481 | 27951 ft | 247 kts | 244° |
| 2026-05-07 03:34 | 34.89214 | -82.57286 | 27948 ft | 247 kts | 243° |
| 2026-05-07 03:34 | 34.88340 | -82.59090 | 27956 ft | 247 kts | 243° |
| 2026-05-07 03:35 | 34.87465 | -82.60896 | 27958 ft | 248 kts | 243° |
| 2026-05-07 03:35 | 34.86513 | -82.62646 | 27954 ft | 249 kts | 239° |
| 2026-05-07 03:35 | 34.85507 | -82.64360 | 27955 ft | 249 kts | 239° |
| 2026-05-07 03:35 | 34.84529 | -82.66063 | 27956 ft | 249 kts | 239° |
| 2026-05-07 03:36 | 34.83531 | -82.67788 | 27960 ft | 249 kts | 239° |
| 2026-05-07 03:36 | 34.82528 | -82.69512 | 27955 ft | 250 kts | 239° |
| 2026-05-07 03:36 | 34.81524 | -82.71239 | 27958 ft | 250 kts | 239° |
| 2026-05-07 03:36 | 34.80521 | -82.72966 | 27958 ft | 250 kts | 239° |
| 2026-05-07 03:37 | 34.79518 | -82.74694 | 27963 ft | 250 kts | 239° |
| 2026-05-07 03:37 | 34.78512 | -82.76422 | 27956 ft | 250 kts | 239° |
| 2026-05-07 03:37 | 34.77515 | -82.78160 | 27915 ft | 251 kts | 241° |
| 2026-05-07 03:37 | 34.76526 | -82.79942 | 27665 ft | 258 kts | 242° |
| 2026-05-07 03:38 | 34.75521 | -82.81730 | 27421 ft | 251 kts | 242° |
| 2026-05-07 03:38 | 34.74549 | -82.83442 | 27170 ft | 241 kts | 242° |
| 2026-05-07 03:38 | 34.73624 | -82.85093 | 26919 ft | 231 kts | 244° |
| 2026-05-07 03:38 | 34.72721 | -82.86675 | 26668 ft | 225 kts | 240° |
| 2026-05-07 03:39 | 34.71783 | -82.88159 | 26421 ft | 217 kts | 241° |
| 2026-05-07 03:39 | 34.70877 | -82.89593 | 26177 ft | 211 kts | 240° |
| 2026-05-07 03:39 | 34.69987 | -82.90973 | 25931 ft | 205 kts | 240° |
| 2026-05-07 03:39 | 34.69119 | -82.92316 | 25692 ft | 200 kts | 241° |
| 2026-05-07 03:40 | 34.68270 | -82.93632 | 25458 ft | 196 kts | 241° |
| 2026-05-07 03:40 | 34.67429 | -82.94941 | 25222 ft | 197 kts | 241° |
| 2026-05-07 03:40 | 34.66579 | -82.96257 | 24995 ft | 199 kts | 241° |
| 2026-05-07 03:40 | 34.65704 | -82.97620 | 24767 ft | 213 kts | 241° |
| 2026-05-07 03:41 | 34.64763 | -82.99085 | 24551 ft | 226 kts | 240° |
| 2026-05-07 03:41 | 34.63762 | -83.00627 | 24331 ft | 239 kts | 240° |
| 2026-05-07 03:41 | 34.62716 | -83.02240 | 24113 ft | 246 kts | 240° |
| 2026-05-07 03:41 | 34.61662 | -83.03862 | 23894 ft | 249 kts | 240° |
| 2026-05-07 03:42 | 34.60593 | -83.05511 | 23669 ft | 249 kts | 240° |
| 2026-05-07 03:42 | 34.59522 | -83.07162 | 23424 ft | 249 kts | 240° |
| 2026-05-07 03:42 | 34.58453 | -83.08817 | 23172 ft | 249 kts | 240° |
| 2026-05-07 03:42 | 34.57383 | -83.10468 | 22918 ft | 249 kts | 240° |
| 2026-05-07 03:43 | 34.56306 | -83.12125 | 22568 ft | 252 kts | 240° |
| 2026-05-07 03:43 | 34.55223 | -83.13796 | 22188 ft | 252 kts | 239° |
| 2026-05-07 03:43 | 34.54137 | -83.15465 | 21790 ft | 252 kts | 239° |
| 2026-05-07 03:43 | 34.53056 | -83.17130 | 21422 ft | 251 kts | 239° |
| 2026-05-07 03:44 | 34.51976 | -83.18793 | 21053 ft | 251 kts | 239° |
| 2026-05-07 03:44 | 34.50891 | -83.20464 | 20689 ft | 254 kts | 239° |
| 2026-05-07 03:44 | 34.49792 | -83.22153 | 20329 ft | 256 kts | 239° |
| 2026-05-07 03:44 | 34.48682 | -83.23857 | 19972 ft | 258 kts | 238° |
| 2026-05-07 03:45 | 34.47944 | -83.24989 | 19738 ft | 259 kts | 238° |
| 2026-05-07 03:45 | 34.46824 | -83.26711 | 19387 ft | 261 kts | 238° |
| 2026-05-07 03:45 | 34.45698 | -83.28437 | 19040 ft | 261 kts | 238° |
| 2026-05-07 03:45 | 34.44569 | -83.30171 | 18635 ft | 263 kts | 238° |
| 2026-05-07 03:46 | 34.43431 | -83.31916 | 18305 ft | 265 kts | 238° |
| 2026-05-07 03:46 | 34.42285 | -83.33671 | 17926 ft | 266 kts | 238° |
| 2026-05-07 03:46 | 34.41134 | -83.35432 | 17540 ft | 267 kts | 237° |
| 2026-05-07 03:46 | 34.39986 | -83.37189 | 17157 ft | 264 kts | 237° |
| 2026-05-07 03:47 | 34.38849 | -83.38929 | 16775 ft | 263 kts | 237° |
| 2026-05-07 03:47 | 34.37716 | -83.40661 | 16396 ft | 262 kts | 237° |
| 2026-05-07 03:47 | 34.36589 | -83.42384 | 16033 ft | 260 kts | 237° |
| 2026-05-07 03:47 | 34.35468 | -83.44096 | 15718 ft | 258 kts | 237° |
| 2026-05-07 03:48 | 34.34357 | -83.45794 | 15366 ft | 256 kts | 236° |
| 2026-05-07 03:48 | 34.33255 | -83.47474 | 15014 ft | 253 kts | 236° |
| 2026-05-07 03:48 | 34.32161 | -83.49144 | 14668 ft | 253 kts | 236° |
| 2026-05-07 03:48 | 34.31066 | -83.50816 | 14326 ft | 253 kts | 236° |
| 2026-05-07 03:49 | 34.29971 | -83.52486 | 13971 ft | 253 kts | 234° |
| 2026-05-07 03:49 | 34.28879 | -83.54147 | 13620 ft | 251 kts | 233° |
| 2026-05-07 03:49 | 34.27804 | -83.55784 | 13238 ft | 246 kts | 233° |
| 2026-05-07 03:49 | 34.26760 | -83.57373 | 12864 ft | 244 kts | 233° |
| 2026-05-07 03:50 | 34.25704 | -83.58982 | 12485 ft | 245 kts | 233° |
| 2026-05-07 03:50 | 34.24646 | -83.60589 | 12114 ft | 243 kts | 233° |
| 2026-05-07 03:50 | 34.23608 | -83.62166 | 11992 ft | 236 kts | 233° |
| 2026-05-07 03:50 | 34.22582 | -83.63727 | 11993 ft | 238 kts | 233° |
| 2026-05-07 03:51 | 34.21555 | -83.65288 | 11994 ft | 237 kts | 233° |
| 2026-05-07 03:51 | 34.20525 | -83.66849 | 11991 ft | 237 kts | 233° |
| 2026-05-07 03:51 | 34.19498 | -83.68409 | 11991 ft | 237 kts | 233° |
| 2026-05-07 03:51 | 34.18469 | -83.69969 | 11985 ft | 237 kts | 233° |
| 2026-05-07 03:52 | 34.17441 | -83.71528 | 11980 ft | 237 kts | 233° |
| 2026-05-07 03:52 | 34.16411 | -83.73087 | 11978 ft | 237 kts | 233° |
| 2026-05-07 03:52 | 34.15384 | -83.74644 | 11979 ft | 237 kts | 233° |
| 2026-05-07 03:52 | 34.14354 | -83.76204 | 11904 ft | 240 kts | 233° |
| 2026-05-07 03:53 | 34.13310 | -83.77787 | 11662 ft | 241 kts | 233° |
| 2026-05-07 03:53 | 34.12268 | -83.79360 | 11419 ft | 239 kts | 233° |
| 2026-05-07 03:53 | 34.11238 | -83.80915 | 11176 ft | 237 kts | 233° |
| 2026-05-07 03:53 | 34.10205 | -83.82478 | 10935 ft | 239 kts | 233° |
| 2026-05-07 03:54 | 34.09095 | -83.83969 | 10700 ft | 240 kts | 226° |
| 2026-05-07 03:54 | 34.07832 | -83.85288 | 10471 ft | 239 kts | 225° |
| 2026-05-07 03:54 | 34.06608 | -83.86611 | 10242 ft | 234 kts | 225° |
| 2026-05-07 03:54 | 34.05404 | -83.87918 | 10010 ft | 231 kts | 225° |
| 2026-05-07 03:55 | 34.04213 | -83.89194 | 9765 ft | 228 kts | 225° |
| 2026-05-07 03:55 | 34.03025 | -83.90470 | 9505 ft | 229 kts | 225° |
| 2026-05-07 03:55 | 34.01831 | -83.91749 | 9258 ft | 231 kts | 225° |
| 2026-05-07 03:55 | 34.00637 | -83.93026 | 9015 ft | 228 kts | 225° |
| 2026-05-07 03:56 | 33.99454 | -83.94292 | 8906 ft | 230 kts | 224° |
| 2026-05-07 03:56 | 33.98127 | -83.95401 | 8655 ft | 233 kts | 214° |
| 2026-05-07 03:56 | 33.96647 | -83.96179 | 8404 ft | 233 kts | 204° |
| 2026-05-07 03:56 | 33.95048 | -83.96613 | 8158 ft | 238 kts | 194° |
| 2026-05-07 03:57 | 33.93379 | -83.96672 | 7911 ft | 242 kts | 185° |
| 2026-05-07 03:57 | 33.91704 | -83.96583 | 7672 ft | 237 kts | 185° |
| 2026-05-07 03:57 | 33.90128 | -83.96514 | 7431 ft | 216 kts | 186° |
| 2026-05-07 03:57 | 33.88701 | -83.96454 | 7188 ft | 197 kts | 186° |
| 2026-05-07 03:58 | 33.87360 | -83.96406 | 6942 ft | 191 kts | 187° |
| 2026-05-07 03:58 | 33.86042 | -83.96355 | 6702 ft | 189 kts | 187° |
| 2026-05-07 03:58 | 33.84720 | -83.96302 | 6465 ft | 191 kts | 187° |
| 2026-05-07 03:58 | 33.83391 | -83.96248 | 6217 ft | 192 kts | 186° |
| 2026-05-07 03:59 | 33.82065 | -83.96188 | 5966 ft | 189 kts | 186° |
| 2026-05-07 03:59 | 33.80755 | -83.96082 | 5717 ft | 188 kts | 184° |
| 2026-05-07 03:59 | 33.79518 | -83.96264 | 5443 ft | 177 kts | 209° |
| 2026-05-07 03:59 | 33.78426 | -83.96961 | 5205 ft | 179 kts | 214° |
| 2026-05-07 04:00 | 33.77363 | -83.97692 | 4927 ft | 178 kts | 214° |
| 2026-05-07 04:00 | 33.76298 | -83.98436 | 4557 ft | 175 kts | 214° |
| 2026-05-07 04:00 | 33.75260 | -83.99172 | 4186 ft | 172 kts | 213° |
| 2026-05-07 04:00 | 33.74267 | -83.99931 | 3948 ft | 161 kts | 214° |
| 2026-05-07 04:01 | 33.73376 | -84.00648 | 3948 ft | 157 kts | 215° |
| 2026-05-07 04:01 | 33.72581 | -84.01539 | 3946 ft | 158 kts | 231° |
| 2026-05-07 04:01 | 33.71974 | -84.02645 | 3948 ft | 159 kts | 234° |
| 2026-05-07 04:01 | 33.71369 | -84.03761 | 3947 ft | 160 kts | 234° |
| 2026-05-07 04:02 | 33.70766 | -84.04876 | 3942 ft | 158 kts | 234° |
| 2026-05-07 04:02 | 33.70161 | -84.05971 | 3947 ft | 155 kts | 234° |
| 2026-05-07 04:02 | 33.69620 | -84.06972 | 3931 ft | 134 kts | 234° |
| 2026-05-07 04:02 | 33.69138 | -84.07877 | 3927 ft | 125 kts | 234° |
| 2026-05-07 04:03 | 33.68661 | -84.08775 | 3708 ft | 131 kts | 234° |
| 2026-05-07 04:03 | 33.68173 | -84.09718 | 3473 ft | 135 kts | 233° |
| 2026-05-07 04:03 | 33.67692 | -84.10690 | 3238 ft | 136 kts | 234° |
| 2026-05-07 04:03 | 33.67220 | -84.11679 | 2994 ft | 137 kts | 234° |
| 2026-05-07 04:04 | 33.66755 | -84.12656 | 2939 ft | 131 kts | 234° |
| 2026-05-07 04:04 | 33.66355 | -84.13602 | 2918 ft | 127 kts | 246° |
| 2026-05-07 04:04 | 33.66425 | -84.14685 | 2927 ft | 128 kts | 261° |
| 2026-05-07 04:04 | 33.66142 | -84.15601 | 2926 ft | 115 kts | 232° |
| 2026-05-07 04:05 | 33.65753 | -84.16431 | 2927 ft | 114 kts | 235° |
| 2026-05-07 04:05 | 33.65373 | -84.17260 | 2931 ft | 114 kts | 234° |
| 2026-05-07 04:05 | 33.65090 | -84.18175 | 2929 ft | 123 kts | 250° |
| 2026-05-07 04:05 | 33.65032 | -84.19192 | 2940 ft | 119 kts | 252° |
| 2026-05-07 04:06 | 33.64991 | -84.20177 | 2940 ft | 116 kts | 255° |
| 2026-05-07 04:06 | 33.64978 | -84.21136 | 2940 ft | 114 kts | 257° |
| 2026-05-07 04:06 | 33.65004 | -84.22088 | 2941 ft | 117 kts | 262° |
| 2026-05-07 04:06 | 33.65130 | -84.23075 | 2943 ft | 121 kts | 264° |
| 2026-05-07 04:07 | 33.65259 | -84.24086 | 2944 ft | 123 kts | 264° |
| 2026-05-07 04:07 | 33.65398 | -84.25103 | 2945 ft | 124 kts | 265° |
| 2026-05-07 04:07 | 33.65400 | -84.26086 | 2944 ft | 114 kts | 249° |
| 2026-05-07 04:07 | 33.65256 | -84.27024 | 2944 ft | 116 kts | 250° |
| 2026-05-07 04:08 | 33.65135 | -84.27983 | 2942 ft | 116 kts | 250° |
| 2026-05-07 04:08 | 33.65060 | -84.28933 | 2946 ft | 115 kts | 255° |
| 2026-05-07 04:08 | 33.65029 | -84.29885 | 2932 ft | 112 kts | 254° |
| 2026-05-07 04:08 | 33.64980 | -84.30801 | 2944 ft | 111 kts | 255° |
| 2026-05-07 04:09 | 33.65048 | -84.31754 | 2854 ft | 118 kts | 263° |
| 2026-05-07 04:09 | 33.65079 | -84.32748 | 2612 ft | 121 kts | 256° |
| 2026-05-07 04:09 | 33.64989 | -84.33766 | 2357 ft | 123 kts | 254° |
| 2026-05-07 04:09 | 33.64960 | -84.34805 | 2177 ft | 126 kts | 262° |
| 2026-05-07 04:10 | 33.64988 | -84.35880 | 1923 ft | 131 kts | 259° |
| 2026-05-07 04:10 | 33.64981 | -84.37007 | 1759 ft | 139 kts | 259° |
| 2026-05-07 04:10 | 33.64934 | -84.38200 | 1532 ft | 147 kts | 264° |
| 2026-05-07 04:10 | 33.64926 | -84.39434 | 1280 ft | 149 kts | 269° |
| 2026-05-07 04:11 | 33.64944 | -84.40671 | 1117 ft | 147 kts | 273° |
| 2026-05-07 04:11 | 33.64958 | -84.41868 | 1007 ft | 132 kts | 272° |
| 2026-05-07 04:11 | 33.64973 | -84.42820 | 1007 ft | 94 kts | 270° |
| 2026-05-07 04:11 | 33.64954 | -84.43379 | 999 ft | 17 kts | 269° |
| 2026-05-07 04:12 | 33.64955 | -84.43407 | 999 ft | 11 kts | 270° |
| 2026-05-07 04:12 | 33.64952 | -84.43551 | 1000 ft | 23 kts | 268° |
| 2026-05-07 04:12 | 33.64913 | -84.43738 | 1000 ft | 21 kts | 198° |
| 2026-05-07 04:12 | 33.64859 | -84.43716 | 1000 ft | 0 kts | 130° |